TimeMDT,TemperatureF,Dew PointF,Humidity,Sea Level PressureIn,VisibilityMPH,Wind Direction,Wind SpeedMPH,Gust SpeedMPH,PrecipitationIn,Events,Conditions,WindDirDegrees,DateUTC
12:53 AM,61.0,52.0,72,29.86,10.0,SSW,3.5,-,N/A,,Overcast,210,2013-09-14 06:53:00
1:53 AM,59.0,53.1,81,29.86,10.0,NE,4.6,-,N/A,,Mostly Cloudy,40,2013-09-14 07:53:00
2:53 AM,57.9,54.0,87,29.86,10.0,Calm,Calm,-,N/A,,Overcast,0,2013-09-14 08:53:00
3:53 AM,57.9,53.1,84,29.86,10.0,ENE,4.6,-,N/A,,Overcast,60,2013-09-14 09:53:00
4:53 AM,57.0,53.1,87,29.86,10.0,East,3.5,-,N/A,,Mostly Cloudy,80,2013-09-14 10:53:00
5:53 AM,55.9,52.0,87,29.86,10.0,North,5.8,-,N/A,,Clear,10,2013-09-14 11:53:00
6:53 AM,54.0,51.1,90,29.88,10.0,Calm,Calm,-,N/A,,Clear,0,2013-09-14 12:53:00
7:53 AM,55.0,51.1,86,29.90,10.0,Calm,Calm,-,N/A,,Partly Cloudy,0,2013-09-14 13:53:00
8:53 AM,57.9,52.0,81,29.92,10.0,NE,3.5,-,N/A,,Clear,40,2013-09-14 14:53:00
9:53 AM,63.0,51.1,65,29.92,10.0,NE,6.9,-,N/A,,Partly Cloudy,40,2013-09-14 15:53:00
10:53 AM,68.0,50.0,52,29.91,10.0,NNE,10.4,-,N/A,,Mostly Cloudy,30,2013-09-14 16:53:00
11:53 AM,70.0,48.0,46,29.90,10.0,NNE,10.4,-,N/A,,Clear,20,2013-09-14 17:53:00
12:53 PM,70.0,48.0,46,29.90,10.0,NNE,12.7,-,N/A,,Partly Cloudy,30,2013-09-14 18:53:00
1:53 PM,72.0,46.9,41,29.88,10.0,North,13.8,20.7,N/A,,Scattered Clouds,10,2013-09-14 19:53:00
2:53 PM,73.9,46.0,37,29.85,10.0,NE,15.0,23.0,N/A,,Mostly Cloudy,40,2013-09-14 20:53:00
3:53 PM,72.0,43.0,35,29.87,10.0,NE,20.7,34.5,N/A,,Mostly Cloudy,40,2013-09-14 21:53:00
4:53 PM,72.0,46.0,40,29.88,10.0,NNE,23.0,34.5,N/A,,Clear,20,2013-09-14 22:53:00
5:53 PM,70.0,44.1,39,29.89,10.0,NNE,18.4,31.1,N/A,,Clear,20,2013-09-14 23:53:00
6:53 PM,66.9,45.0,45,29.89,10.0,NNE,16.1,25.3,N/A,,Clear,30,2013-09-15 00:53:00
7:53 PM,64.0,43.0,46,29.91,10.0,NE,10.4,-,N/A,,Partly Cloudy,40,2013-09-15 01:53:00
8:53 PM,64.9,44.1,47,29.91,10.0,ENE,10.4,-,N/A,,Overcast,60,2013-09-15 02:53:00
9:53 PM,64.0,44.1,48,29.92,10.0,NE,10.4,-,N/A,,Overcast,50,2013-09-15 03:53:00
10:53 PM,63.0,45.0,52,29.92,10.0,ENE,6.9,-,N/A,,Overcast,60,2013-09-15 04:53:00
11:53 PM,63.0,45.0,52,29.93,10.0,ENE,6.9,-,N/A,,Overcast,70,2013-09-15 05:53:00